Time;durP1;ratioP1;P1;durP2;ratioP2;P2;SDS_P1;SDS_P2;PMS_P1;PMS_P2;Temp;Humidity;BMP_temperature;BMP_pressure;BME280_temperature;BME280_humidity;BME280_pressure;Samples;Min_cycle;Max_cycle;Signal;HPM_P1;HPM_P2
2022/08/27 00:00:51;;;;;;;16.50;13.23;;;;;;;21.24;100.00;98843.88;5128657;27;20243;-80
2022/08/27 00:03:22;;;;;;;15.93;12.47;;;;;;;21.18;100.00;98833.78;5128371;27;20729;-80
2022/08/27 00:05:50;;;;;;;18.93;12.93;;;;;;;21.34;100.00;98833.75;5127137;27;20202;-80
2022/08/27 00:08:19;;;;;;;17.17;12.53;;;;;;;21.38;100.00;98835.91;5128716;27;20186;-80
2022/08/27 00:10:47;;;;;;;15.90;12.30;;;;;;;21.34;100.00;98833.75;5128843;27;20187;-81
2022/08/27 00:13:16;;;;;;;15.80;12.60;;;;;;;21.25;100.00;98832.06;5125261;27;20187;-80
2022/08/27 00:15:44;;;;;;;20.30;12.80;;;;;;;21.26;100.00;98831.06;5130560;27;20198;-80
2022/08/27 00:18:15;;;;;;;16.57;12.50;;;;;;;21.31;100.00;98826.00;5129144;27;20206;-81
2022/08/27 00:20:51;;;;;;;15.43;11.23;;;;;;;21.34;100.00;98820.28;5129952;27;20289;-80
2022/08/27 00:23:20;;;;;;;16.80;12.03;;;;;;;21.32;100.00;98817.72;5131789;27;20193;-80
2022/08/27 00:25:48;;;;;;;18.57;11.97;;;;;;;21.34;100.00;98820.28;5131635;27;20194;-80
2022/08/27 00:28:17;;;;;;;18.90;11.43;;;;;;;21.39;100.00;98813.34;5128492;27;20206;-80
2022/08/27 00:30:46;;;;;;;17.57;11.80;;;;;;;21.45;100.00;98816.34;5128238;27;20235;-80
2022/08/27 00:33:17;;;;;;;17.83;11.23;;;;;;;21.38;100.00;98808.13;5135745;27;20704;-81
2022/08/27 00:35:46;;;;;;;18.77;11.17;;;;;;;21.32;100.00;98803.41;5132603;27;20186;-81
2022/08/27 00:38:14;;;;;;;17.27;11.53;;;;;;;21.32;100.00;98806.13;5133062;27;20205;-81
2022/08/27 00:40:44;;;;;;;17.03;11.90;;;;;;;21.25;100.00;98805.97;5098938;27;20193;-80
2022/08/27 00:43:20;;;;;;;16.57;11.57;;;;;;;21.18;100.00;98804.13;5127019;27;20243;-80
2022/08/27 00:45:55;;;;;;;16.87;11.53;;;;;;;21.00;100.00;98815.13;5135306;27;20305;-80
2022/08/27 00:48:31;;;;;;;16.53;11.60;;;;;;;21.09;100.00;98808.72;5130536;27;20255;-80
2022/08/27 00:51:07;;;;;;;17.27;11.47;;;;;;;21.15;100.00;98806.19;5052119;28;20237;-81
2022/08/27 00:53:37;;;;;;;15.93;10.87;;;;;;;21.19;100.00;98814.72;5045962;28;20208;-80
2022/08/27 00:56:10;;;;;;;15.03;10.97;;;;;;;21.25;100.00;98810.53;5043951;28;20679;-80
2022/08/27 00:58:42;;;;;;;15.83;10.60;;;;;;;21.27;100.00;98821.97;5044880;28;20197;-80
2022/08/27 01:01:15;;;;;;;16.20;10.07;;;;;;;21.25;100.00;98821.28;5049762;28;20193;-80
2022/08/27 01:03:51;;;;;;;16.37;10.20;;;;;;;21.19;100.00;98817.44;5049949;28;20204;-80
2022/08/27 01:06:23;;;;;;;18.50;10.33;;;;;;;21.11;100.00;98823.69;5050217;28;20283;-80
2022/08/27 01:08:57;;;;;;;19.80;10.57;;;;;;;21.15;100.00;98821.50;5049184;28;20192;-80
2022/08/27 01:11:26;;;;;;;21.53;10.00;;;;;;;21.18;100.00;98823.84;5045100;28;20196;-80
2022/08/27 01:13:55;;;;;;;19.63;10.33;;;;;;;21.21;100.00;98817.25;5045366;28;20197;-80
2022/08/27 01:16:35;;;;;;;15.50;9.60;;;;;;;21.12;100.00;98822.66;5047055;28;20276;-80
2022/08/27 01:19:11;;;;;;;16.37;9.97;;;;;;;21.07;100.00;98819.66;5049761;28;20192;-80
2022/08/27 01:21:48;;;;;;;13.53;9.93;;;;;;;21.13;100.00;98832.44;5068267;27;20277;-80
2022/08/27 01:24:35;;;;;;;21.13;10.53;;;;;;;21.22;100.00;98827.00;5126052;27;20194;-80
2022/08/27 01:27:07;;;;;;;21.63;9.47;;;;;;;21.23;100.00;98820.59;5126768;27;20199;-80
2022/08/27 01:29:42;;;;;;;16.57;10.00;;;;;;;21.13;100.00;98828.88;5130878;27;20649;-80
2022/08/27 01:32:14;;;;;;;17.33;9.17;;;;;;;21.11;100.00;98830.91;5132312;27;20214;-81
2022/08/27 01:34:43;;;;;;;15.87;10.27;;;;;;;21.22;100.00;98835.94;5131472;27;20259;-81
2022/08/27 01:37:14;;;;;;;14.10;9.53;;;;;;;21.13;100.00;98835.16;5134689;27;20195;-80
2022/08/27 01:39:44;;;;;;;20.23;9.80;;;;;;;21.05;100.00;98837.03;5130537;27;20187;-80
2022/08/27 01:42:18;;;;;;;13.87;9.00;;;;;;;21.02;100.00;98834.66;5130237;27;20233;-80
2022/08/27 01:44:50;;;;;;;14.03;9.30;;;;;;;20.89;100.00;98832.50;5124724;27;20223;-80
2022/08/27 01:47:22;;;;;;;14.70;8.60;;;;;;;20.98;100.00;98836.84;5125569;27;20286;-80
2022/08/27 01:49:57;;;;;;;11.50;8.17;;;;;;;20.94;100.00;98838.22;5071389;28;20196;-80
2022/08/27 01:52:28;;;;;;;11.87;8.60;;;;;;;20.94;100.00;98837.34;5067593;28;20224;-80
2022/08/27 01:54:59;;;;;;;14.53;9.37;;;;;;;21.00;100.00;98845.59;5067178;28;20223;-81
2022/08/27 01:57:31;;;;;;;15.60;8.60;;;;;;;20.98;100.00;98842.25;5065990;28;20203;-81
2022/08/27 01:59:59;;;;;;;12.80;8.53;;;;;;;20.97;100.00;98831.66;5071377;28;20215;-81
2022/08/27 02:02:27;;;;;;;15.00;8.77;;;;;;;20.97;100.00;98835.19;5035606;28;20197;-81
2022/08/27 02:04:56;;;;;;;14.33;9.10;;;;;;;20.98;100.00;98831.47;5069463;28;20242;-80
2022/08/27 02:07:24;;;;;;;15.83;8.90;;;;;;;20.97;100.00;98837.88;5074456;28;20194;-81
2022/08/27 02:09:53;;;;;;;16.73;9.40;;;;;;;21.01;100.00;98832.97;5102576;28;20202;-80
2022/08/27 02:12:23;;;;;;;13.60;8.93;;;;;;;20.97;100.00;98834.34;5109718;28;20215;-81
2022/08/27 02:14:52;;;;;;;14.97;8.57;;;;;;;21.02;100.00;98826.56;5106962;28;20202;-80
2022/08/27 02:17:22;;;;;;;15.90;8.97;;;;;;;21.01;100.00;98835.66;5104596;28;20194;-81
2022/08/27 02:19:52;;;;;;;20.00;9.20;;;;;;;20.93;100.00;98836.53;5103784;28;20238;-81
2022/08/27 02:22:20;;;;;;;16.07;9.03;;;;;;;20.85;100.00;98834.72;5063602;28;20222;-81
2022/08/27 02:24:52;;;;;;;12.10;9.37;;;;;;;20.98;100.00;98836.84;5069576;28;20196;-80
2022/08/27 02:27:22;;;;;;;12.77;9.27;;;;;;;20.98;100.00;98833.31;5051498;28;20208;-80
2022/08/27 02:29:51;;;;;;;12.33;9.17;;;;;;;20.89;100.00;98839.75;5049973;28;20217;-80
2022/08/27 02:32:21;;;;;;;16.40;8.43;;;;;;;20.88;100.00;98838.91;5052021;28;20769;-80
2022/08/27 02:35:03;;;;;;;20.97;9.30;;;;;;;20.84;100.00;98838.41;5051974;28;20281;-80
2022/08/27 02:37:32;;;;;;;13.53;9.07;;;;;;;20.80;100.00;98844.31;5050889;28;20773;-80
2022/08/27 02:40:01;;;;;;;15.60;9.57;;;;;;;20.84;100.00;98853.69;5061374;28;20206;-81
2022/08/27 02:42:31;;;;;;;15.77;9.27;;;;;;;20.91;100.00;98849.31;5081443;28;20215;-80
2022/08/27 02:45:02;;;;;;;12.73;8.70;;;;;;;20.82;100.00;98848.50;5083563;28;20256;-80
2022/08/27 02:47:30;;;;;;;21.07;9.47;;;;;;;20.85;100.00;98844.66;5089339;28;20298;-81
2022/08/27 02:49:58;;;;;;;11.87;8.83;;;;;;;20.71;100.00;98838.09;5087842;28;20226;-81
2022/08/27 02:52:28;;;;;;;16.50;9.50;;;;;;;20.76;100.00;98851.88;5099726;28;20217;-80
2022/08/27 02:54:56;;;;;;;15.27;8.90;;;;;;;20.79;100.00;98837.25;5110770;28;20203;-81
2022/08/27 02:57:25;;;;;;;14.43;9.13;;;;;;;20.75;100.00;98834.06;5111655;28;20222;-80
2022/08/27 02:59:55;;;;;;;16.90;9.67;;;;;;;20.77;100.00;98841.97;5114437;28;20219;-80
2022/08/27 03:02:24;;;;;;;13.30;9.63;;;;;;;20.93;100.00;98841.06;5114204;28;20187;-80
2022/08/27 03:04:54;;;;;;;13.50;8.80;;;;;;;20.89;100.00;98840.59;5111403;28;20191;-80
2022/08/27 03:07:24;;;;;;;13.53;9.20;;;;;;;20.96;100.00;98836.19;5116134;28;20219;-81
2022/08/27 03:09:52;;;;;;;17.97;9.83;;;;;;;20.78;100.00;98836.41;5111188;28;20194;-80
2022/08/27 03:12:21;;;;;;;13.30;9.20;;;;;;;20.83;100.00;98839.41;5114212;28;20274;-80
2022/08/27 03:14:53;;;;;;;16.33;9.87;;;;;;;20.68;100.00;98833.06;5110576;28;20195;-80
2022/08/27 03:20:11;;;;;;;15.27;9.30;;;;;;;20.65;100.00;98836.06;5014220;28;20214;-80
2022/08/27 03:22:41;;;;;;;15.20;8.60;;;;;;;20.74;100.00;98832.34;5010323;28;20241;-80
2022/08/27 03:25:10;;;;;;;15.07;8.90;;;;;;;20.78;100.00;98832.88;5008077;28;20238;-81
2022/08/27 03:27:39;;;;;;;13.77;8.77;;;;;;;20.65;100.00;98829.84;5006838;28;20206;-81
2022/08/27 03:30:10;;;;;;;14.60;8.57;;;;;;;20.74;100.00;98826.97;4954419;28;20220;-80
2022/08/27 03:32:41;;;;;;;20.97;9.27;;;;;;;20.82;100.00;98835.03;4950401;28;20264;-80
2022/08/27 03:35:10;;;;;;;12.97;8.50;;;;;;;20.79;100.00;98830.00;4950565;28;20212;-81
2022/08/27 03:37:39;;;;;;;16.27;8.77;;;;;;;20.82;100.00;98837.72;4949266;28;20692;-81
2022/08/27 03:40:09;;;;;;;15.50;8.23;;;;;;;20.92;100.00;98842.94;4948677;28;20279;-81
2022/08/27 03:42:41;;;;;;;13.90;8.60;;;;;;;20.84;100.00;98840.25;4951165;28;20236;-81
2022/08/27 03:45:11;;;;;;;20.00;9.27;;;;;;;20.90;100.00;98834.19;4951351;28;20211;-81
2022/08/27 03:47:40;;;;;;;12.27;8.27;;;;;;;20.84;100.00;98840.25;4966951;28;20208;-80
2022/08/27 03:50:14;;;;;;;15.73;8.60;;;;;;;20.86;100.00;98835.56;5071645;28;20231;-80
2022/08/27 03:52:43;;;;;;;14.93;9.13;;;;;;;20.90;100.00;98838.72;5077637;28;20231;-80
2022/08/27 03:55:11;;;;;;;13.90;8.70;;;;;;;20.78;100.00;98847.16;5068157;28;20191;-80
2022/08/27 03:57:40;;;;;;;13.70;8.40;;;;;;;20.65;100.00;98840.59;5073402;28;20292;-80
2022/08/27 04:00:11;;;;;;;12.63;8.97;;;;;;;20.60;100.00;98841.13;5072018;28;20620;-81
2022/08/27 04:02:42;;;;;;;14.37;8.87;;;;;;;20.68;100.00;98843.81;5075460;28;20651;-80
2022/08/27 04:05:14;;;;;;;13.80;8.77;;;;;;;20.69;100.00;98833.91;5075542;28;20192;-80
2022/08/27 04:07:44;;;;;;;12.87;9.23;;;;;;;20.66;100.00;98832.41;5074330;28;20196;-80
2022/08/27 04:10:12;;;;;;;12.03;9.00;;;;;;;20.65;100.00;98838.75;5067607;28;20192;-80
2022/08/27 04:12:42;;;;;;;15.90;10.00;;;;;;;20.34;100.00;98841.28;5072789;28;20204;-80
2022/08/27 04:15:12;;;;;;;14.83;9.53;;;;;;;20.38;100.00;98842.63;5072199;28;20216;-80
2022/08/27 04:17:43;;;;;;;13.67;10.23;;;;;;;20.35;100.00;98842.13;5074684;28;20188;-80
2022/08/27 04:20:11;;;;;;;13.60;10.57;;;;;;;20.33;100.00;98847.66;5074041;28;20275;-80
2022/08/27 04:23:00;;;;;;;13.87;10.90;;;;;;;20.33;100.00;98853.03;5075157;28;20218;-80
2022/08/27 04:25:29;;;;;;;17.50;11.43;;;;;;;20.34;100.00;98852.03;5073607;28;20246;-80
2022/08/27 04:27:58;;;;;;;14.77;11.23;;;;;;;20.47;100.00;98854.28;5071085;28;20205;-80
2022/08/27 04:30:27;;;;;;;16.53;11.83;;;;;;;20.47;100.00;98847.03;5070354;28;20290;-80
2022/08/27 04:32:57;;;;;;;16.33;11.67;;;;;;;20.49;100.00;98850.41;5071325;28;20204;-80
2022/08/27 04:35:26;;;;;;;15.93;11.50;;;;;;;20.63;100.00;98851.56;5012616;28;20215;-80
2022/08/27 04:37:57;;;;;;;20.37;11.47;;;;;;;20.58;100.00;98852.06;5010729;28;20329;-81
2022/08/27 04:41:18;;;;;;;16.60;11.10;;;;;;;20.53;100.00;98854.41;5007773;28;20278;-80
2022/08/27 04:43:15;;;;;;;17.97;11.67;;;;;;;20.40;100.00;98859.44;5010049;28;20217;-80
2022/08/27 04:45:45;;;;;;;14.93;11.27;;;;;;;20.41;100.00;98862.97;5015078;28;20758;-81
2022/08/27 04:48:17;;;;;;;16.07;11.70;;;;;;;20.48;100.00;98861.34;5032526;28;20186;-81
2022/08/27 04:50:47;;;;;;;13.50;11.00;;;;;;;20.46;100.00;98857.94;4996053;28;20198;-81
2022/08/27 04:53:19;;;;;;;14.83;10.87;;;;;;;20.46;100.00;98856.13;5018602;28;20227;-81
2022/08/27 04:55:51;;;;;;;18.20;11.23;;;;;;;20.54;100.00;98863.34;5050983;28;20225;-81
2022/08/27 04:58:24;;;;;;;13.70;9.90;;;;;;;20.46;100.00;98863.31;5044310;28;20280;-81
2022/08/27 05:00:54;;;;;;;15.70;9.63;;;;;;;20.52;100.00;98860.81;5051056;28;20763;-81
2022/08/27 05:03:25;;;;;;;12.03;10.13;;;;;;;20.61;100.00;98858.97;5050967;28;20214;-81
2022/08/27 05:05:59;;;;;;;14.97;9.53;;;;;;;20.56;100.00;98864.03;5045172;28;20251;-80
2022/08/27 05:08:30;;;;;;;11.27;9.83;;;;;;;20.55;100.00;98862.31;5051998;28;20197;-81
2022/08/27 05:11:00;;;;;;;16.03;10.17;;;;;;;20.58;100.00;98867.38;5047296;28;20272;-80
2022/08/27 05:13:29;;;;;;;15.73;9.97;;;;;;;20.62;100.00;98866.03;5059331;28;20223;-80
2022/08/27 05:16:00;;;;;;;12.50;9.03;;;;;;;20.64;100.00;98871.22;5094278;28;20275;-80
2022/08/27 05:18:31;;;;;;;11.93;9.33;;;;;;;20.68;100.00;98864.50;5094198;28;20199;-79
2022/08/27 05:21:10;;;;;;;12.83;9.67;;;;;;;20.70;100.00;98867.88;5093982;28;20199;-80
2022/08/27 05:23:40;;;;;;;10.90;9.40;;;;;;;20.65;100.00;98862.13;5090513;28;20211;-80
2022/08/27 05:26:08;;;;;;;15.13;9.03;;;;;;;20.48;100.00;98866.72;5087773;28;20650;-80
2022/08/27 05:28:37;;;;;;;15.27;9.67;;;;;;;20.67;100.00;98876.28;5086771;28;20191;-80
2022/08/27 05:31:10;;;;;;;11.50;9.03;;;;;;;20.57;100.00;98869.22;5049216;28;20201;-80
2022/08/27 05:33:42;;;;;;;12.87;9.63;;;;;;;20.56;100.00;98870.25;5053680;28;20661;-79
2022/08/27 05:36:17;;;;;;;13.20;9.47;;;;;;;20.36;100.00;98866.16;5051213;28;20648;-80
2022/08/27 05:38:45;;;;;;;14.13;9.50;;;;;;;20.34;100.00;98870.88;5049504;28;20247;-80
2022/08/27 05:41:16;;;;;;;12.90;9.77;;;;;;;20.34;100.00;98876.25;5064245;28;20227;-81
2022/08/27 05:43:47;;;;;;;12.87;9.33;;;;;;;20.37;100.00;98872.41;5046415;28;20204;-81
2022/08/27 05:46:19;;;;;;;12.77;8.47;;;;;;;20.57;100.00;98869.22;5050348;28;20228;-81
2022/08/27 05:48:50;;;;;;;9.23;8.30;;;;;;;20.41;100.00;98865.66;5012940;28;20212;-83
2022/08/27 05:51:22;;;;;;;11.13;8.60;;;;;;;20.48;100.00;98870.25;5028117;28;20236;-81
2022/08/27 05:53:56;;;;;;;11.53;8.87;;;;;;;20.58;100.00;98868.22;5026843;28;20710;-80
2022/08/27 05:56:28;;;;;;;15.50;9.03;;;;;;;20.58;100.00;98870.06;5027624;28;20369;-81
2022/08/27 06:01:50;;;;;;;12.90;8.63;;;;;;;20.73;100.00;98871.06;5015683;28;20197;-81
2022/08/27 06:04:22;;;;;;;11.67;8.07;;;;;;;20.74;100.00;98867.34;5028216;28;20190;-81
2022/08/27 06:06:52;;;;;;;13.57;8.13;;;;;;;20.79;100.00;98872.25;5045704;28;20185;-80
2022/08/27 06:09:23;;;;;;;11.83;7.37;;;;;;;20.76;100.00;98864.50;5067599;28;20205;-81
2022/08/27 06:11:54;;;;;;;9.40;8.03;;;;;;;20.63;100.00;98870.38;5070532;28;20196;-81
2022/08/27 06:14:25;;;;;;;13.17;7.87;;;;;;;20.81;100.00;98873.75;5073165;28;20223;-81
2022/08/27 06:16:54;;;;;;;11.40;7.60;;;;;;;20.85;100.00;98874.25;5067238;28;20196;-80
2022/08/27 06:19:25;;;;;;;10.50;7.57;;;;;;;20.90;100.00;98868.34;5075358;28;20208;-81
2022/08/27 06:21:53;;;;;;;9.10;7.27;;;;;;;21.09;100.00;98868.81;5048541;28;20197;-81
2022/08/27 06:24:38;;;;;;;11.57;7.37;;;;;;;21.27;100.00;98873.16;5049047;28;20197;-81
2022/08/27 06:27:10;;;;;;;8.47;7.27;;;;;;;21.24;100.00;98868.94;5043162;28;20204;-80
2022/08/27 06:29:40;;;;;;;10.23;7.37;;;;;;;21.17;100.00;98867.13;5050916;28;20193;-81
2022/08/27 06:32:09;;;;;;;11.00;7.27;;;;;;;21.03;100.00;98857.88;5050490;28;20193;-81
2022/08/27 06:34:39;;;;;;;9.37;7.30;;;;;;;21.03;100.00;98869.47;4989855;28;20223;-82
2022/08/27 06:37:08;;;;;;;10.33;7.00;;;;;;;21.26;100.00;98866.06;4989923;28;20438;-80
2022/08/27 06:39:38;;;;;;;9.50;7.20;;;;;;;21.49;100.00;98871.56;4999455;28;20365;-81
2022/08/27 06:42:11;;;;;;;11.17;6.97;;;;;;;21.27;100.00;98870.47;5025795;28;20645;-80
2022/08/27 06:44:41;;;;;;;8.83;6.43;;;;;;;21.13;100.00;98874.69;5029655;28;20198;-80
2022/08/27 06:47:11;;;;;;;9.53;7.13;;;;;;;21.20;100.00;98870.28;4959021;28;20239;-80
2022/08/27 06:49:42;;;;;;;7.53;6.80;;;;;;;21.29;100.00;98871.13;4964290;28;20211;-80
2022/08/27 06:52:13;;;;;;;9.23;6.60;;;;;;;21.28;100.00;98864.91;4981438;28;20193;-80
2022/08/27 06:54:43;;;;;;;9.50;6.40;;;;;;;21.57;100.00;98872.38;5025306;28;20209;-80
2022/08/27 06:57:12;;;;;;;6.23;5.60;;;;;;;21.78;100.00;98868.22;5028938;28;20194;-81
2022/08/27 06:59:40;;;;;;;7.63;5.60;;;;;;;21.88;100.00;98863.44;5028000;28;20221;-80
2022/08/27 07:02:08;;;;;;;6.03;5.40;;;;;;;21.87;100.00;98861.78;5021937;28;20210;-80
2022/08/27 07:04:37;;;;;;;6.27;5.60;;;;;;;21.98;100.00;98861.38;5030329;28;20246;-81
2022/08/27 07:07:07;;;;;;;8.63;5.33;;;;;;;21.94;100.00;98863.59;5050071;28;20205;-80
2022/08/27 07:09:35;;;;;;;7.63;5.50;;;;;;;21.97;100.00;98863.22;5009326;28;20226;-80
2022/08/27 07:12:05;;;;;;;7.77;5.47;;;;;;;22.11;100.00;98864.38;5009290;28;20690;-80
2022/08/27 07:15:14;;;;;;;6.25;4.63;;;;;;;22.03;100.00;98858.16;5005160;28;20209;-80
2022/08/27 07:17:43;;;;;;;5.60;4.70;;;;;;;21.91;100.00;98860.41;5006933;28;20221;-81
2022/08/27 07:20:13;;;;;;;7.03;5.00;;;;;;;21.74;100.00;98862.38;5008122;28;20254;-80
2022/08/27 07:22:44;;;;;;;7.40;4.57;;;;;;;21.75;100.00;98855.94;5007012;28;20653;-80
2022/08/27 07:25:18;;;;;;;4.50;3.85;;;;;;;21.77;100.00;98864.69;5023592;28;20668;-80
2022/08/27 07:27:47;;;;;;;4.13;3.75;;;;;;;21.82;100.00;98866.88;5052568;28;20230;-80
2022/08/27 07:30:17;;;;;;;8.00;3.90;;;;;;;21.84;100.00;98872.94;5070234;28;20200;-80
2022/08/27 07:32:48;;;;;;;3.30;3.00;;;;;;;21.88;100.00;98875.06;5065526;28;20643;-80
2022/08/27 07:35:18;;;;;;;5.00;3.50;;;;;;;21.87;100.00;98873.41;5075994;28;20295;-80
2022/08/27 07:37:48;;;;;;;4.82;3.40;;;;;;;21.95;100.00;98880.59;5070090;28;20206;-80
2022/08/27 07:40:17;;;;;;;4.47;3.28;;;;;;;21.94;100.00;98877.06;5074209;28;20195;-80
2022/08/27 07:45:31;;;;;;;4.97;4.03;;;;;;;21.96;100.00;98882.28;5077970;28;20282;-81
2022/08/27 07:47:59;;;;;;;4.25;3.80;;;;;;;22.01;100.00;98882.59;5113267;28;20199;-81
2022/08/27 07:50:29;;;;;;;4.10;3.30;;;;;;;22.13;100.00;98883.91;5116395;28;20223;-80
2022/08/27 07:52:58;;;;;;;4.37;3.80;;;;;;;21.81;100.00;98881.34;5111965;28;20206;-80
2022/08/27 07:55:27;;;;;;;4.07;3.67;;;;;;;21.96;100.00;98883.13;5107448;28;20227;-80
2022/08/27 07:57:56;;;;;;;4.60;4.20;;;;;;;21.92;100.00;98884.50;5110398;28;20638;-80
2022/08/27 08:00:24;;;;;;;4.10;3.70;;;;;;;21.98;100.00;98891.03;5063699;28;20187;-80
2022/08/27 08:02:52;;;;;;;5.28;4.05;;;;;;;21.84;100.00;98889.09;5097470;28;20661;-80
2022/08/27 08:05:21;;;;;;;5.03;3.50;;;;;;;22.20;100.00;98892.97;5114639;28;20199;-80
2022/08/27 08:07:51;;;;;;;5.07;3.33;;;;;;;22.18;100.00;98891.44;5113390;28;20187;-80
2022/08/27 08:10:22;;;;;;;4.83;3.50;;;;;;;22.23;100.00;98880.97;5111697;28;20198;-81
2022/08/27 08:12:50;;;;;;;3.88;3.50;;;;;;;22.33;100.00;98886.97;5097015;28;20193;-80
2022/08/27 08:15:19;;;;;;;3.60;3.10;;;;;;;22.37;100.00;98896.38;5109465;28;20222;-80
2022/08/27 08:17:48;;;;;;;3.28;2.97;;;;;;;22.37;100.00;98899.06;5112202;28;20187;-80
2022/08/27 08:20:18;;;;;;;3.20;2.70;;;;;;;22.51;100.00;98900.16;5112869;28;20564;-80
2022/08/27 08:23:07;;;;;;;5.45;3.15;;;;;;;22.53;100.00;98898.97;5115834;28;20206;-80
2022/08/27 08:25:39;;;;;;;3.33;2.55;;;;;;;22.36;100.00;98889.28;5107877;28;20241;-80
2022/08/27 08:28:08;;;;;;;3.17;2.80;;;;;;;22.49;100.00;98897.66;5112911;28;20278;-80
2022/08/27 08:30:36;;;;;;;2.95;2.25;;;;;;;22.71;100.00;98898.66;5107416;28;20199;-80
2022/08/27 08:33:05;;;;;;;3.40;2.38;;;;;;;22.76;100.00;98898.09;5110383;28;20209;-81
2022/08/27 08:35:37;;;;;;;4.00;3.00;;;;;;;22.73;100.00;98899.28;5115200;28;20199;-80
2022/08/27 08:38:09;;;;;;;4.13;2.72;;;;;;;22.72;100.00;98892.22;5115323;28;20209;-80
2022/08/27 08:40:41;;;;;;;2.97;2.65;;;;;;;22.91;100.00;98895.47;5111091;28;20251;-80
2022/08/27 08:43:21;;;;;;;3.28;2.88;;;;;;;22.85;100.00;98900.56;5112737;28;20639;-80
2022/08/27 08:45:51;;;;;;;5.18;2.65;;;;;;;22.70;100.00;98902.38;5108881;28;20230;-80
2022/08/27 08:48:22;;;;;;;3.10;2.60;;;;;;;22.74;100.00;98897.44;5112231;28;20198;-80
2022/08/27 08:50:59;;;;;;;4.07;2.72;;;;;;;22.71;100.00;98900.50;5113092;28;20187;-80
2022/08/27 08:53:39;;;;;;;4.53;2.85;;;;;;;22.96;100.00;98903.84;5115125;28;20186;-80
2022/08/27 08:56:15;;;;;;;2.78;2.53;;;;;;;22.90;100.00;98907.28;5111317;28;20254;-80
2022/08/27 08:58:47;;;;;;;3.53;2.67;;;;;;;22.75;100.00;98909.91;5112667;28;20206;-80
2022/08/27 09:01:19;;;;;;;3.63;2.90;;;;;;;22.81;100.00;98912.72;5114901;28;20187;-80
2022/08/27 09:03:53;;;;;;;2.90;2.60;;;;;;;22.99;100.00;98909.72;5110777;28;20198;-80
2022/08/27 09:06:33;;;;;;;3.70;2.60;;;;;;;22.81;100.00;98914.59;5107997;28;20266;-80
2022/08/27 09:09:14;;;;;;;2.87;2.57;;;;;;;23.11;100.00;98920.94;5111943;28;20213;-80
2022/08/27 09:11:53;;;;;;;3.92;3.00;;;;;;;23.05;100.00;98911.69;5110104;28;20207;-80
2022/08/27 09:14:30;;;;;;;4.20;2.90;;;;;;;23.08;100.00;98918.59;5108854;28;20222;-81
2022/08/27 09:17:00;;;;;;;3.45;2.90;;;;;;;23.14;100.00;98912.44;5110555;28;20214;-80
2022/08/27 09:19:30;;;;;;;4.28;3.40;;;;;;;23.04;100.00;98918.13;5110822;28;20191;-80
2022/08/27 09:22:03;;;;;;;4.85;3.22;;;;;;;23.24;100.00;98915.72;5114218;28;20195;-80
2022/08/27 09:24:40;;;;;;;3.83;3.13;;;;;;;23.39;100.00;98916.56;5110845;28;20309;-80
2022/08/27 09:27:13;;;;;;;4.78;3.17;;;;;;;23.30;100.00;98917.69;5111521;28;20277;-80
2022/08/27 09:29:49;;;;;;;4.32;2.92;;;;;;;23.25;100.00;98921.94;5109121;28;20222;-80
2022/08/27 09:32:24;;;;;;;5.18;3.13;;;;;;;23.49;100.00;98921.69;5108765;28;20195;-80
2022/08/27 09:34:58;;;;;;;5.65;3.35;;;;;;;23.26;100.00;98913.69;5111334;28;20182;-79
2022/08/27 09:37:31;;;;;;;3.72;3.33;;;;;;;23.22;100.00;98920.47;5088706;28;20435;-80
2022/08/27 09:40:06;;;;;;;6.00;3.55;;;;;;;23.39;100.00;98918.44;5083149;28;20397;-79
2022/08/27 09:42:53;;;;;;;4.72;4.10;;;;;;;23.30;100.00;98917.69;5091218;28;20633;-80
2022/08/27 09:45:23;;;;;;;6.93;3.80;;;;;;;23.35;100.00;98906.31;5085748;28;20222;-80
2022/08/27 09:47:54;;;;;;;6.25;3.60;;;;;;;23.60;100.00;98915.00;5089069;28;20199;-80
2022/08/27 09:50:24;;;;;;;5.28;3.90;;;;;;;23.60;100.00;98915.00;5088701;28;20199;-80
2022/08/27 09:52:55;;;;;;;4.60;3.85;;;;;;;23.46;100.00;98916.69;5083559;28;20251;-81
2022/08/27 09:55:38;;;;;;;5.72;3.75;;;;;;;23.64;100.00;98917.16;5086326;28;20191;-82
2022/08/27 09:58:19;;;;;;;4.28;3.88;;;;;;;23.41;100.00;98917.22;5085780;28;20211;-82
2022/08/27 10:00:48;;;;;;;4.10;3.70;;;;;;;23.81;100.00;98920.47;5083836;28;20674;-81
2022/08/27 10:03:22;;;;;;;6.32;3.90;;;;;;;23.82;100.00;98924.88;5108809;28;20210;-81
2022/08/27 10:05:57;;;;;;;4.18;3.78;;;;;;;23.71;100.00;98919.94;5113696;28;20194;-80
2022/08/27 10:08:30;;;;;;;4.05;3.65;;;;;;;23.52;100.00;98917.78;5109927;28;20194;-80
2022/08/27 10:11:04;;;;;;;6.53;4.20;;;;;;;23.50;100.00;98919.84;5111275;28;20246;-81
2022/08/27 10:13:52;;;;;;;3.83;3.42;;;;;;;23.64;100.00;98914.47;5050781;28;20196;-80
2022/08/27 10:16:36;;;;;;;5.55;4.10;;;;;;;23.70;100.00;98918.25;5043812;28;20204;-80
2022/08/27 10:19:16;;;;;;;4.83;3.90;;;;;;;23.63;100.00;98911.91;5048409;28;20197;-81
2022/08/27 10:21:51;;;;;;;5.35;4.22;;;;;;;23.30;100.00;98917.69;5011371;28;20194;-81
2022/08/27 10:24:29;;;;;;;5.57;4.07;;;;;;;23.16;100.00;98920.34;5010035;28;20202;-81
2022/08/27 10:27:11;;;;;;;5.90;4.47;;;;;;;23.20;100.00;98910.88;5007517;28;20653;-80
2022/08/27 10:29:48;;;;;;;8.05;4.28;;;;;;;23.20;100.00;98916.28;5009521;28;20198;-80
2022/08/27 10:32:44;;;;;;;5.47;4.10;;;;;;;23.14;100.00;98909.75;5050470;28;20256;-80
2022/08/27 10:35:23;;;;;;;4.50;4.05;;;;;;;23.31;100.00;98918.53;5066095;28;20274;-80
2022/08/27 10:38:10;;;;;;;5.95;4.13;;;;;;;23.56;100.00;98909.13;5065710;28;20220;-81
2022/08/27 10:40:45;;;;;;;7.85;4.70;;;;;;;23.79;100.00;98906.31;5098686;28;20276;-81
2022/08/27 10:43:38;;;;;;;5.55;4.07;;;;;;;24.25;100.00;98912.28;5113454;28;20255;-81
2022/08/27 10:46:28;;;;;;;5.53;5.03;;;;;;;24.24;100.00;98907.06;5107355;28;20227;-81
2022/08/27 10:49:04;;;;;;;5.97;5.38;;;;;;;24.46;100.00;98899.81;5107272;28;20199;-80
2022/08/27 10:51:41;;;;;;;7.63;5.35;;;;;;;24.68;100.00;98901.47;5108377;28;20221;-81
2022/08/27 10:54:21;;;;;;;6.05;5.15;;;;;;;24.65;100.00;98903.72;5106217;28;20273;-80
2022/08/27 10:56:57;;;;;;;5.40;4.75;;;;;;;24.76;100.00;98897.78;5111538;28;20230;-81
2022/08/27 10:59:53;;;;;;;7.30;5.68;;;;;;;24.86;100.00;98901.00;5113250;28;20202;-81
2022/08/27 11:02:32;;;;;;;5.75;4.82;;;;;;;24.92;100.00;98893.97;5110119;28;20199;-80
2022/08/27 11:05:06;;;;;;;5.57;5.07;;;;;;;25.02;100.00;98897.19;5109736;28;20222;-80
2022/08/27 11:07:38;;;;;;;5.75;4.78;;;;;;;25.03;100.00;98896.16;5110071;28;20226;-80
2022/08/27 11:10:17;;;;;;;5.28;4.47;;;;;;;25.27;100.00;98901.09;5115503;28;20230;-80
2022/08/27 11:12:50;;;;;;;5.85;5.00;;;;;;;24.65;100.00;98893.75;5114652;28;20229;-80
2022/08/27 11:15:24;;;;;;;6.32;4.32;;;;;;;25.18;100.00;98905.00;5116823;28;20195;-80
2022/08/27 11:18:06;;;;;;;5.18;4.63;;;;;;;25.46;100.00;98899.56;5123720;27;20224;-81
2022/08/27 11:20:41;;;;;;;5.32;4.38;;;;;;;25.41;100.00;98902.03;5130089;27;20220;-81
2022/08/27 11:23:15;;;;;;;5.07;4.35;;;;;;;25.55;100.00;98900.22;5134327;27;20277;-80
2022/08/27 11:25:51;;;;;;;5.78;4.45;;;;;;;25.34;100.00;98893.88;5136173;27;20190;-80
2022/08/27 11:28:22;;;;;;;5.95;5.18;;;;;;;25.43;100.00;98899.97;5133083;27;20230;-80
2022/08/27 11:31:03;;;;;;;5.20;4.70;;;;;;;25.75;100.00;98895.78;5130981;27;20218;-81
2022/08/27 11:33:41;;;;;;;5.75;4.47;;;;;;;25.99;100.00;98891.69;5134685;27;20198;-81
2022/08/27 11:36:30;;;;;;;8.90;5.95;;;;;;;26.23;100.00;98895.72;5129382;27;20206;-81
2022/08/27 11:39:04;;;;;;;5.32;4.40;;;;;;;26.50;100.00;98893.94;5128554;27;20263;-80
2022/08/27 11:41:55;;;;;;;6.70;5.20;;;;;;;26.95;100.00;98891.47;5123571;27;20190;-81
2022/08/27 11:44:26;;;;;;;4.95;4.40;;;;;;;26.87;100.00;98889.78;5129570;27;20199;-81
2022/08/27 11:46:57;;;;;;;5.80;4.60;;;;;;;27.19;100.00;98889.97;5132459;27;20230;-81
2022/08/27 11:49:34;;;;;;;6.15;4.30;;;;;;;27.21;100.00;98887.88;5130802;27;20201;-81
2022/08/27 11:52:06;;;;;;;4.72;4.32;;;;;;;27.47;100.00;98887.00;5132073;27;20217;-81